sensor_id;sensor_type;location;lat;lon;timestamp;pressure;altitude;pressure_sealevel;temperature;humidity
17649;BME280;8943;51.110;-4.158;2023-05-16T00:00:42;102161.53;;;14.31;45.79
17649;BME280;8943;51.110;-4.158;2023-05-16T00:03:14;102168.81;;;14.29;46.25
17649;BME280;8943;51.110;-4.158;2023-05-16T00:06:02;102167.09;;;14.28;46.32
17649;BME280;8943;51.110;-4.158;2023-05-16T00:21:30;102184.44;;;14.23;46.19
17649;BME280;8943;51.110;-4.158;2023-05-16T00:44:56;102177.81;;;14.01;46.20
17649;BME280;8943;51.110;-4.158;2023-05-16T00:58:20;102187.78;;;13.71;46.32
17649;BME280;8943;51.110;-4.158;2023-05-16T01:04:09;102174.22;;;13.59;46.83
17649;BME280;8943;51.110;-4.158;2023-05-16T01:06:41;102179.59;;;13.59;47.08
17649;BME280;8943;51.110;-4.158;2023-05-16T01:13:00;102174.13;;;13.61;47.49
17649;BME280;8943;51.110;-4.158;2023-05-16T01:15:38;102166.88;;;13.63;47.70
17649;BME280;8943;51.110;-4.158;2023-05-16T01:18:18;102167.84;;;13.62;48.16
17649;BME280;8943;51.110;-4.158;2023-05-16T01:20:55;102168.78;;;13.61;48.73
17649;BME280;8943;51.110;-4.158;2023-05-16T01:23:40;102164.47;;;13.58;48.78
17649;BME280;8943;51.110;-4.158;2023-05-16T01:26:18;102168.13;;;13.57;48.99
17649;BME280;8943;51.110;-4.158;2023-05-16T01:28:50;102166.00;;;13.62;49.07
17649;BME280;8943;51.110;-4.158;2023-05-16T01:31:19;102160.66;;;13.62;49.20
17649;BME280;8943;51.110;-4.158;2023-05-16T01:33:48;102162.78;;;13.57;49.29
17649;BME280;8943;51.110;-4.158;2023-05-16T01:36:29;102165.22;;;13.60;49.40
17649;BME280;8943;51.110;-4.158;2023-05-16T01:39:08;102165.44;;;13.57;49.69
17649;BME280;8943;51.110;-4.158;2023-05-16T01:41:45;102164.03;;;13.52;49.66
17649;BME280;8943;51.110;-4.158;2023-05-16T01:44:17;102164.88;;;13.52;49.80
17649;BME280;8943;51.110;-4.158;2023-05-16T01:46:53;102161.63;;;13.47;49.88
17649;BME280;8943;51.110;-4.158;2023-05-16T01:49:26;102160.84;;;13.45;49.97
17649;BME280;8943;51.110;-4.158;2023-05-16T01:51:59;102161.81;;;13.44;50.13
17649;BME280;8943;51.110;-4.158;2023-05-16T01:54:31;102162.78;;;13.43;49.86
17649;BME280;8943;51.110;-4.158;2023-05-16T01:57:03;102157.41;;;13.43;50.15
17649;BME280;8943;51.110;-4.158;2023-05-16T01:59:41;102158.06;;;13.47;50.12
17649;BME280;8943;51.110;-4.158;2023-05-16T02:02:18;102152.81;;;13.45;50.02
17649;BME280;8943;51.110;-4.158;2023-05-16T02:04:46;102152.72;;;13.47;49.75
17649;BME280;8943;51.110;-4.158;2023-05-16T02:07:18;102154.44;;;13.48;49.94
17649;BME280;8943;51.110;-4.158;2023-05-16T02:09:53;102157.19;;;13.46;50.19
17649;BME280;8943;51.110;-4.158;2023-05-16T02:12:41;102157.19;;;13.46;49.76
17649;BME280;8943;51.110;-4.158;2023-05-16T02:15:19;102159.81;;;13.48;49.98
17649;BME280;8943;51.110;-4.158;2023-05-16T02:17:48;102150.13;;;13.45;49.86
17649;BME280;8943;51.110;-4.158;2023-05-16T02:20:25;102156.63;;;13.41;49.99
17649;BME280;8943;51.110;-4.158;2023-05-16T02:22:53;102157.59;;;13.40;50.38
17649;BME280;8943;51.110;-4.158;2023-05-16T02:25:24;102160.38;;;13.38;50.51
17649;BME280;8943;51.110;-4.158;2023-05-16T02:27:55;102162.19;;;13.38;50.57
17649;BME280;8943;51.110;-4.158;2023-05-16T02:30:29;102162.28;;;13.36;50.31
17649;BME280;8943;51.110;-4.158;2023-05-16T02:33:24;102172.34;;;13.33;50.51
17649;BME280;8943;51.110;-4.158;2023-05-16T02:35:54;102166.97;;;13.33;50.90
17649;BME280;8943;51.110;-4.158;2023-05-16T02:38:26;102164.38;;;13.31;50.82
17649;BME280;8943;51.110;-4.158;2023-05-16T06:43:22;102260.66;;;14.18;51.04
17649;BME280;8943;51.110;-4.158;2023-05-16T06:46:00;102265.44;;;14.28;50.82
17649;BME280;8943;51.110;-4.158;2023-05-16T06:48:33;102248.22;;;14.32;50.66
17649;BME280;8943;51.110;-4.158;2023-05-16T06:51:20;102253.94;;;14.40;50.82
17649;BME280;8943;51.110;-4.158;2023-05-16T06:53:58;102259.88;;;14.45;50.81
17649;BME280;8943;51.110;-4.158;2023-05-16T06:57:16;102262.91;;;14.53;51.23
17649;BME280;8943;51.110;-4.158;2023-05-16T07:00:38;102262.84;;;14.55;51.17
17649;BME280;8943;51.110;-4.158;2023-05-16T07:03:36;102266.63;;;14.65;50.92
17649;BME280;8943;51.110;-4.158;2023-05-16T07:47:52;102301.69;;;15.68;51.02
17649;BME280;8943;51.110;-4.158;2023-05-16T07:50:21;102296.63;;;15.77;51.15
17649;BME280;8943;51.110;-4.158;2023-05-16T07:52:50;102306.72;;;15.86;50.82
17649;BME280;8943;51.110;-4.158;2023-05-16T07:55:46;102305.31;;;15.93;50.77
17649;BME280;8943;51.110;-4.158;2023-05-16T08:01:06;102309.41;;;16.11;50.64
17649;BME280;8943;51.110;-4.158;2023-05-16T08:03:36;102304.63;;;16.15;50.66
17649;BME280;8943;51.110;-4.158;2023-05-16T08:17:47;102308.75;;;16.57;50.46
17649;BME280;8943;51.110;-4.158;2023-05-16T08:20:51;102316.25;;;16.65;50.38
17649;BME280;8943;51.110;-4.158;2023-05-16T08:36:12;102318.34;;;16.85;49.78
17649;BME280;8943;51.110;-4.158;2023-05-16T08:38:45;102312.47;;;16.80;49.43
17649;BME280;8943;51.110;-4.158;2023-05-16T08:44:03;102310.41;;;16.84;49.54
17649;BME280;8943;51.110;-4.158;2023-05-16T08:47:10;102306.13;;;16.92;49.05
17649;BME280;8943;51.110;-4.158;2023-05-16T08:49:43;102310.97;;;17.00;49.14
17649;BME280;8943;51.110;-4.158;2023-05-16T08:55:39;102306.81;;;17.07;48.38
17649;BME280;8943;51.110;-4.158;2023-05-16T08:58:20;102313.19;;;17.06;48.13
17649;BME280;8943;51.110;-4.158;2023-05-16T09:07:10;102306.28;;;17.26;47.29
17649;BME280;8943;51.110;-4.158;2023-05-16T09:10:07;102307.75;;;17.30;46.90
17649;BME280;8943;51.110;-4.158;2023-05-16T09:19:11;102301.81;;;17.38;44.56
17649;BME280;8943;51.110;-4.158;2023-05-16T09:22:01;102302.31;;;17.43;43.12
17649;BME280;8943;51.110;-4.158;2023-05-16T09:27:15;102318.34;;;17.56;43.80
17649;BME280;8943;51.110;-4.158;2023-05-16T09:29:50;102307.00;;;17.63;42.97
17649;BME280;8943;51.110;-4.158;2023-05-16T09:35:10;102308.88;;;17.74;42.12
17649;BME280;8943;51.110;-4.158;2023-05-16T09:37:50;102316.59;;;17.79;42.15
17649;BME280;8943;51.110;-4.158;2023-05-16T09:40:40;102313.78;;;17.80;41.08
17649;BME280;8943;51.110;-4.158;2023-05-16T09:43:14;102310.22;;;17.80;41.04
17649;BME280;8943;51.110;-4.158;2023-05-16T09:45:58;102315.03;;;17.87;40.83
17649;BME280;8943;51.110;-4.158;2023-05-16T09:48:27;102319.56;;;17.87;40.74
17649;BME280;8943;51.110;-4.158;2023-05-16T09:51:41;102316.50;;;17.91;40.82
17649;BME280;8943;51.110;-4.158;2023-05-16T09:54:09;102329.63;;;17.96;40.76
17649;BME280;8943;51.110;-4.158;2023-05-16T09:56:47;102321.41;;;17.97;39.87
17649;BME280;8943;51.110;-4.158;2023-05-16T09:59:40;102328.50;;;17.98;37.98
17649;BME280;8943;51.110;-4.158;2023-05-16T10:02:14;102315.16;;;17.97;38.43
17649;BME280;8943;51.110;-4.158;2023-05-16T10:04:45;102325.19;;;17.95;38.57
17649;BME280;8943;51.110;-4.158;2023-05-16T10:07:16;102319.44;;;17.99;38.95
17649;BME280;8943;51.110;-4.158;2023-05-16T10:09:45;102325.69;;;18.00;38.95
17649;BME280;8943;51.110;-4.158;2023-05-16T10:12:15;102326.94;;;18.07;39.03
17649;BME280;8943;51.110;-4.158;2023-05-16T10:14:44;102328.41;;;18.11;39.35
17649;BME280;8943;51.110;-4.158;2023-05-16T10:17:17;102334.28;;;18.16;39.69
17649;BME280;8943;51.110;-4.158;2023-05-16T10:19:47;102342.13;;;18.19;40.08
17649;BME280;8943;51.110;-4.158;2023-05-16T10:22:35;102335.25;;;18.15;40.27
17649;BME280;8943;51.110;-4.158;2023-05-16T10:25:11;102332.56;;;18.15;41.05
17649;BME280;8943;51.110;-4.158;2023-05-16T10:27:59;102336.50;;;18.22;41.49
17649;BME280;8943;51.110;-4.158;2023-05-16T10:30:30;102329.75;;;18.28;41.10
17649;BME280;8943;51.110;-4.158;2023-05-16T10:33:00;102332.31;;;18.30;40.50
17649;BME280;8943;51.110;-4.158;2023-05-16T10:35:30;102330.97;;;18.35;40.65
17649;BME280;8943;51.110;-4.158;2023-05-16T10:38:17;102336.72;;;18.42;40.65
17649;BME280;8943;51.110;-4.158;2023-05-16T10:40:53;102339.44;;;18.42;40.22
17649;BME280;8943;51.110;-4.158;2023-05-16T10:43:28;102333.03;;;18.43;39.97
17649;BME280;8943;51.110;-4.158;2023-05-16T10:46:09;102335.59;;;18.44;40.30
17649;BME280;8943;51.110;-4.158;2023-05-16T10:48:53;102336.50;;;18.45;39.30
17649;BME280;8943;51.110;-4.158;2023-05-16T10:51:36;102327.16;;;18.38;38.31
17649;BME280;8943;51.110;-4.158;2023-05-16T10:54:24;102329.22;;;18.34;38.49
17649;BME280;8943;51.110;-4.158;2023-05-16T10:57:06;102334.91;;;18.31;37.44
17649;BME280;8943;51.110;-4.158;2023-05-16T11:00:20;102335.00;;;18.18;38.32
17649;BME280;8943;51.110;-4.158;2023-05-16T11:02:50;102331.09;;;18.22;38.91
17649;BME280;8943;51.110;-4.158;2023-05-16T11:05:21;102331.06;;;18.34;38.22
17649;BME280;8943;51.110;-4.158;2023-05-16T11:08:04;102333.56;;;18.25;37.97
17649;BME280;8943;51.110;-4.158;2023-05-16T11:10:38;102316.63;;;18.23;37.72
17649;BME280;8943;51.110;-4.158;2023-05-16T11:13:08;102332.06;;;18.33;38.37
17649;BME280;8943;51.110;-4.158;2023-05-16T11:18:49;102326.66;;;18.44;38.80
17649;BME280;8943;51.110;-4.158;2023-05-16T11:21:20;102329.94;;;18.59;39.42
17649;BME280;8943;51.110;-4.158;2023-05-16T11:24:27;102327.00;;;18.62;37.73
17649;BME280;8943;51.110;-4.158;2023-05-16T11:30:41;102322.69;;;18.59;39.17
17649;BME280;8943;51.110;-4.158;2023-05-16T11:33:11;102329.47;;;18.65;39.14
17649;BME280;8943;51.110;-4.158;2023-05-16T11:35:42;102327.47;;;18.67;39.48
17649;BME280;8943;51.110;-4.158;2023-05-16T11:38:15;102321.22;;;18.66;39.73
17649;BME280;8943;51.110;-4.158;2023-05-16T11:40:44;102335.38;;;18.70;40.10
17649;BME280;8943;51.110;-4.158;2023-05-16T11:43:44;102328.31;;;18.67;40.26
17649;BME280;8943;51.110;-4.158;2023-05-16T11:46:19;102334.38;;;18.71;40.51
17649;BME280;8943;51.110;-4.158;2023-05-16T11:49:04;102331.53;;;18.61;40.80
17649;BME280;8943;51.110;-4.158;2023-05-16T11:51:37;102337.06;;;18.48;40.93
17649;BME280;8943;51.110;-4.158;2023-05-16T11:54:31;102329.00;;;18.37;41.68
17649;BME280;8943;51.110;-4.158;2023-05-16T11:57:01;102337.81;;;18.39;42.03
17649;BME280;8943;51.110;-4.158;2023-05-16T11:59:30;102331.56;;;18.39;42.24
17649;BME280;8943;51.110;-4.158;2023-05-16T12:02:03;102335.38;;;18.47;42.60
17649;BME280;8943;51.110;-4.158;2023-05-16T12:04:33;102344.09;;;18.51;42.45
17649;BME280;8943;51.110;-4.158;2023-05-16T12:07:02;102349.09;;;18.56;42.72
17649;BME280;8943;51.110;-4.158;2023-05-16T12:09:31;102333.50;;;18.59;42.76
17649;BME280;8943;51.110;-4.158;2023-05-16T12:12:04;102339.91;;;18.69;42.66
17649;BME280;8943;51.110;-4.158;2023-05-16T12:14:41;102353.25;;;18.82;42.66
17649;BME280;8943;51.110;-4.158;2023-05-16T12:17:14;102345.63;;;18.87;42.59
17649;BME280;8943;51.110;-4.158;2023-05-16T12:19:43;102330.25;;;18.99;42.44
17649;BME280;8943;51.110;-4.158;2023-05-16T12:22:16;102328.69;;;19.17;41.88
17649;BME280;8943;51.110;-4.158;2023-05-16T12:24:46;102335.81;;;19.18;41.87
17649;BME280;8943;51.110;-4.158;2023-05-16T12:27:21;102331.00;;;19.22;41.37
17649;BME280;8943;51.110;-4.158;2023-05-16T12:29:53;102342.78;;;19.21;41.55
17649;BME280;8943;51.110;-4.158;2023-05-16T12:32:51;102338.47;;;19.29;42.05
17649;BME280;8943;51.110;-4.158;2023-05-16T12:35:20;102333.75;;;19.43;41.73
17649;BME280;8943;51.110;-4.158;2023-05-16T12:37:49;102338.81;;;19.57;41.14
17649;BME280;8943;51.110;-4.158;2023-05-16T12:40:18;102337.56;;;19.61;40.20
17649;BME280;8943;51.110;-4.158;2023-05-16T12:42:48;102329.72;;;19.58;40.97
17649;BME280;8943;51.110;-4.158;2023-05-16T12:45:21;102322.69;;;19.67;40.88
17649;BME280;8943;51.110;-4.158;2023-05-16T12:51:13;102331.94;;;19.95;40.90
17649;BME280;8943;51.110;-4.158;2023-05-16T12:53:43;102337.00;;;20.09;40.14
17649;BME280;8943;51.110;-4.158;2023-05-16T12:56:37;102330.13;;;20.05;39.88
17649;BME280;8943;51.110;-4.158;2023-05-16T12:59:22;102332.47;;;20.19;40.37
17649;BME280;8943;51.110;-4.158;2023-05-16T13:01:56;102341.13;;;20.44;40.59
17649;BME280;8943;51.110;-4.158;2023-05-16T13:04:53;102332.00;;;20.35;40.99
17649;BME280;8943;51.110;-4.158;2023-05-16T13:08:05;102338.63;;;20.52;41.80
17649;BME280;8943;51.110;-4.158;2023-05-16T13:10:33;102345.56;;;21.04;40.01
17649;BME280;8943;51.110;-4.158;2023-05-16T13:13:14;102348.13;;;21.54;37.54
17649;BME280;8943;51.110;-4.158;2023-05-16T13:16:02;102334.66;;;21.82;37.11
17649;BME280;8943;51.110;-4.158;2023-05-16T13:18:30;102339.13;;;21.64;38.35
17649;BME280;8943;51.110;-4.158;2023-05-16T13:21:00;102333.22;;;21.88;37.49
17649;BME280;8943;51.110;-4.158;2023-05-16T13:33:15;102346.31;;;22.12;36.92
17649;BME280;8943;51.110;-4.158;2023-05-16T13:35:44;102349.53;;;22.25;36.57
17649;BME280;8943;51.110;-4.158;2023-05-16T13:38:15;102352.16;;;22.17;37.31
17649;BME280;8943;51.110;-4.158;2023-05-16T13:41:17;102343.97;;;22.26;36.96
17649;BME280;8943;51.110;-4.158;2023-05-16T13:43:47;102347.81;;;22.24;38.17
17649;BME280;8943;51.110;-4.158;2023-05-16T13:46:58;102352.13;;;22.26;38.26
17649;BME280;8943;51.110;-4.158;2023-05-16T13:49:29;102343.44;;;22.68;37.42
17649;BME280;8943;51.110;-4.158;2023-05-16T13:51:59;102335.31;;;22.86;37.52
17649;BME280;8943;51.110;-4.158;2023-05-16T13:54:28;102348.94;;;23.39;37.49
17649;BME280;8943;51.110;-4.158;2023-05-16T13:56:59;102340.81;;;23.83;35.39
17649;BME280;8943;51.110;-4.158;2023-05-16T14:02:34;102328.41;;;24.23;34.02
17649;BME280;8943;51.110;-4.158;2023-05-16T14:09:00;102335.78;;;24.65;33.23
17649;BME280;8943;51.110;-4.158;2023-05-16T14:11:39;102328.28;;;24.75;32.88
17649;BME280;8943;51.110;-4.158;2023-05-16T14:14:38;102320.31;;;24.98;33.11
17649;BME280;8943;51.110;-4.158;2023-05-16T14:17:19;102319.00;;;25.10;31.97
17649;BME280;8943;51.110;-4.158;2023-05-16T14:20:19;102310.63;;;25.12;31.99
17649;BME280;8943;51.110;-4.158;2023-05-16T14:23:21;102317.78;;;25.13;32.87
17649;BME280;8943;51.110;-4.158;2023-05-16T14:26:02;102325.97;;;25.05;32.93
17649;BME280;8943;51.110;-4.158;2023-05-16T14:28:45;102333.41;;;24.86;32.26
17649;BME280;8943;51.110;-4.158;2023-05-16T14:31:36;102314.47;;;24.60;33.12
17649;BME280;8943;51.110;-4.158;2023-05-16T14:34:12;102317.84;;;24.62;34.30
17649;BME280;8943;51.110;-4.158;2023-05-16T14:36:40;102328.66;;;24.80;33.81
17649;BME280;8943;51.110;-4.158;2023-05-16T14:39:15;102311.47;;;25.04;33.71
17649;BME280;8943;51.110;-4.158;2023-05-16T14:41:50;102320.84;;;25.59;33.60
17649;BME280;8943;51.110;-4.158;2023-05-16T14:44:30;102304.41;;;26.00;31.42
17649;BME280;8943;51.110;-4.158;2023-05-16T14:47:08;102312.50;;;26.24;31.43
17649;BME280;8943;51.110;-4.158;2023-05-16T14:49:48;102309.59;;;26.65;30.91
17649;BME280;8943;51.110;-4.158;2023-05-16T14:52:29;102308.38;;;26.67;29.62
17649;BME280;8943;51.110;-4.158;2023-05-16T14:55:02;102301.22;;;26.27;29.92
17649;BME280;8943;51.110;-4.158;2023-05-16T14:57:37;102307.31;;;26.37;30.25
17649;BME280;8943;51.110;-4.158;2023-05-16T15:00:10;102296.72;;;26.74;29.99
17649;BME280;8943;51.110;-4.158;2023-05-16T15:02:39;102305.13;;;26.95;29.44
17649;BME280;8943;51.110;-4.158;2023-05-16T15:05:17;102301.53;;;27.17;28.88
17649;BME280;8943;51.110;-4.158;2023-05-16T15:07:48;102301.72;;;27.39;28.30
17649;BME280;8943;51.110;-4.158;2023-05-16T15:10:24;102292.34;;;27.33;27.37
17649;BME280;8943;51.110;-4.158;2023-05-16T15:12:58;102295.97;;;27.49;27.22
17649;BME280;8943;51.110;-4.158;2023-05-16T15:15:42;102307.75;;;27.34;26.21
17649;BME280;8943;51.110;-4.158;2023-05-16T15:18:13;102303.66;;;26.84;26.51
17649;BME280;8943;51.110;-4.158;2023-05-16T15:21:02;102292.81;;;26.37;27.97
17649;BME280;8943;51.110;-4.158;2023-05-16T15:23:31;102303.84;;;26.12;28.24
17649;BME280;8943;51.110;-4.158;2023-05-16T15:26:01;102295.25;;;25.68;28.39
17649;BME280;8943;51.110;-4.158;2023-05-16T15:29:08;102294.59;;;25.58;28.63
17649;BME280;8943;51.110;-4.158;2023-05-16T15:32:07;102302.44;;;25.53;29.08
17649;BME280;8943;51.110;-4.158;2023-05-16T15:34:53;102297.97;;;25.60;29.55
17649;BME280;8943;51.110;-4.158;2023-05-16T15:37:21;102300.84;;;25.75;29.56
17649;BME280;8943;51.110;-4.158;2023-05-16T15:40:24;102303.09;;;25.87;29.07
17649;BME280;8943;51.110;-4.158;2023-05-16T15:43:31;102307.22;;;25.59;29.25
17649;BME280;8943;51.110;-4.158;2023-05-16T15:46:16;102303.63;;;25.42;29.09
17649;BME280;8943;51.110;-4.158;2023-05-16T15:48:54;102294.09;;;25.38;29.39
17649;BME280;8943;51.110;-4.158;2023-05-16T15:54:09;102298.38;;;25.24;29.65
17649;BME280;8943;51.110;-4.158;2023-05-16T15:56:39;102292.03;;;25.40;29.82
17649;BME280;8943;51.110;-4.158;2023-05-16T15:59:11;102293.56;;;25.59;30.02
17649;BME280;8943;51.110;-4.158;2023-05-16T16:10:37;102295.69;;;25.96;29.29
17649;BME280;8943;51.110;-4.158;2023-05-16T16:13:40;102289.13;;;25.58;29.54
17649;BME280;8943;51.110;-4.158;2023-05-16T16:16:47;102293.53;;;25.83;29.91
17649;BME280;8943;51.110;-4.158;2023-05-16T16:22:24;102289.13;;;26.61;29.59
17649;BME280;8943;51.110;-4.158;2023-05-16T16:24:55;102289.31;;;27.28;28.99
17649;BME280;8943;51.110;-4.158;2023-05-16T16:30:51;102303.56;;;28.06;27.23
17649;BME280;8943;51.110;-4.158;2023-05-16T16:36:23;102300.75;;;28.14;26.58
17649;BME280;8943;51.110;-4.158;2023-05-16T16:39:07;102305.84;;;28.17;26.71
17649;BME280;8943;51.110;-4.158;2023-05-16T16:41:48;102307.91;;;28.30;26.97
17649;BME280;8943;51.110;-4.158;2023-05-16T16:44:49;102314.72;;;28.34;26.84
17649;BME280;8943;51.110;-4.158;2023-05-16T16:48:00;102315.41;;;28.21;26.70
17649;BME280;8943;51.110;-4.158;2023-05-16T16:50:35;102301.78;;;27.98;26.71
17649;BME280;8943;51.110;-4.158;2023-05-16T16:56:32;102303.75;;;27.37;28.04
17649;BME280;8943;51.110;-4.158;2023-05-16T16:59:00;102298.28;;;27.37;28.53
17649;BME280;8943;51.110;-4.158;2023-05-16T17:01:54;102301.50;;;27.78;27.69
17649;BME280;8943;51.110;-4.158;2023-05-16T17:04:31;102299.81;;;28.07;26.57
17649;BME280;8943;51.110;-4.158;2023-05-16T17:16:43;102300.28;;;27.28;27.05
17649;BME280;8943;51.110;-4.158;2023-05-16T17:19:14;102302.38;;;27.56;27.29
17649;BME280;8943;51.110;-4.158;2023-05-16T17:21:45;102307.91;;;28.00;27.24
17649;BME280;8943;51.110;-4.158;2023-05-16T17:27:13;102297.75;;;27.56;26.16
17649;BME280;8943;51.110;-4.158;2023-05-16T17:29:47;102298.81;;;27.55;26.94
17649;BME280;8943;51.110;-4.158;2023-05-16T20:16:36;102356.22;;;18.23;38.18
17649;BME280;8943;51.110;-4.158;2023-05-16T20:55:52;102401.66;;;16.99;42.44
17649;BME280;8943;51.110;-4.158;2023-05-16T21:55:51;102415.22;;;16.48;43.05
17649;BME280;8943;51.110;-4.158;2023-05-16T21:58:48;102408.75;;;16.38;43.24
17649;BME280;8943;51.110;-4.158;2023-05-16T22:04:36;102409.84;;;16.23;43.73
17649;BME280;8943;51.110;-4.158;2023-05-16T22:07:27;102405.97;;;16.14;43.81
17649;BME280;8943;51.110;-4.158;2023-05-16T23:50:18;102421.66;;;14.74;48.27
17649;BME280;8943;51.110;-4.158;2023-05-16T23:55:46;102421.16;;;14.82;48.10
